Time;durP1;ratioP1;P1;durP2;ratioP2;P2;SDS_P1;SDS_P2;PMS_P1;PMS_P2;Temp;Humidity;BMP_temperature;BMP_pressure;BME280_temperature;BME280_humidity;BME280_pressure;Samples;Min_cycle;Max_cycle;Signal;HPM_P1;HPM_P2
2022/07/29 00:01:56;;;;;;;4.10;1.77;;;15.80;99.90;;;;;;5093561;28;20048;-65
2022/07/29 00:04:21;;;;;;;4.45;2.17;;;15.80;99.90;;;;;;5092968;28;20048;-65
2022/07/29 00:06:47;;;;;;;5.50;1.98;;;15.80;99.90;;;;;;5097074;28;20044;-65
2022/07/29 00:09:13;;;;;;;2.50;1.70;;;15.80;99.90;;;;;;5102526;28;20068;-65
2022/07/29 00:11:38;;;;;;;5.78;2.05;;;15.80;99.90;;;;;;5091761;28;20445;-65
2022/07/29 00:14:04;;;;;;;3.67;2.13;;;15.70;99.90;;;;;;5099130;28;20101;-65
2022/07/29 00:16:30;;;;;;;2.90;2.05;;;15.80;99.90;;;;;;5098867;28;20048;-65
2022/07/29 00:18:55;;;;;;;3.15;2.45;;;15.80;99.90;;;;;;5102754;28;20066;-65
2022/07/29 00:21:21;;;;;;;2.83;1.85;;;15.70;99.90;;;;;;5093801;28;20068;-65
2022/07/29 00:23:47;;;;;;;4.78;2.40;;;15.70;99.90;;;;;;5103260;28;20044;-65
2022/07/29 00:26:13;;;;;;;3.95;2.38;;;15.70;99.90;;;;;;5104836;28;20037;-65
2022/07/29 00:28:38;;;;;;;3.15;2.00;;;15.70;99.90;;;;;;5103427;28;20057;-65
2022/07/29 00:31:04;;;;;;;4.47;2.53;;;15.70;99.90;;;;;;5101321;28;20112;-65
2022/07/29 00:33:30;;;;;;;3.60;2.25;;;15.70;99.90;;;;;;5104311;28;20099;-64
2022/07/29 00:35:55;;;;;;;5.97;2.70;;;15.70;99.90;;;;;;5105124;28;20048;-65
2022/07/29 00:38:21;;;;;;;2.83;2.40;;;15.60;99.90;;;;;;5101826;28;20036;-65
2022/07/29 00:40:48;;;;;;;4.90;2.45;;;15.60;99.90;;;;;;5098468;28;20094;-65
2022/07/29 00:43:14;;;;;;;3.20;2.10;;;15.50;99.90;;;;;;5104653;28;20044;-64
2022/07/29 00:45:41;;;;;;;5.03;2.30;;;15.50;99.90;;;;;;5103199;28;20036;-65
2022/07/29 00:48:08;;;;;;;2.88;2.15;;;15.50;99.90;;;;;;5093536;28;20062;-65
2022/07/29 00:50:34;;;;;;;4.50;2.20;;;15.40;99.90;;;;;;5084538;28;20044;-65
2022/07/29 00:53:01;;;;;;;5.50;2.60;;;15.40;99.90;;;;;;5103811;28;20123;-65
2022/07/29 00:55:26;;;;;;;3.75;2.22;;;15.40;99.90;;;;;;5104309;28;20047;-65
2022/07/29 00:57:53;;;;;;;6.00;2.72;;;15.50;99.90;;;;;;5102378;28;20063;-65
2022/07/29 01:00:24;;;;;;;3.33;2.25;;;15.50;99.90;;;;;;5098882;28;20093;-65
2022/07/29 01:02:50;;;;;;;4.80;2.38;;;15.50;99.90;;;;;;5101455;28;20404;-65
2022/07/29 01:05:19;;;;;;;5.55;2.40;;;15.50;99.90;;;;;;5087922;28;20052;-65
2022/07/29 01:07:46;;;;;;;5.70;1.95;;;15.40;99.90;;;;;;5094523;28;20054;-65
2022/07/29 01:10:14;;;;;;;3.78;2.30;;;15.40;99.90;;;;;;5101163;28;20048;-64
2022/07/29 01:12:42;;;;;;;5.00;2.45;;;15.40;99.90;;;;;;5093450;28;20484;-65
2022/07/29 01:15:08;;;;;;;7.45;2.60;;;15.40;99.90;;;;;;5105517;28;20047;-65
2022/07/29 01:18:01;;;;;;;5.00;2.55;;;15.40;99.90;;;;;;5096185;28;20036;-65
2022/07/29 01:20:41;;;;;;;3.55;2.60;;;15.40;99.90;;;;;;5104672;28;20048;-65
2022/07/29 01:23:30;;;;;;;4.43;2.40;;;15.40;99.90;;;;;;5098777;28;20051;-65
2022/07/29 01:26:12;;;;;;;5.50;2.55;;;15.30;99.90;;;;;;5090121;28;20043;-65
2022/07/29 01:28:47;;;;;;;5.15;2.75;;;15.40;99.90;;;;;;5089231;28;20048;-65
2022/07/29 01:31:18;;;;;;;5.80;2.38;;;15.40;99.90;;;;;;5083585;28;20131;-65
2022/07/29 01:33:49;;;;;;;5.80;2.50;;;15.30;99.90;;;;;;5100025;28;20037;-65
2022/07/29 01:36:50;;;;;;;4.78;2.38;;;15.30;99.90;;;;;;5102340;28;20040;-65
2022/07/29 01:39:26;;;;;;;5.72;2.78;;;15.30;99.90;;;;;;5092031;28;20055;-65
2022/07/29 01:42:38;;;;;;;4.93;2.45;;;15.30;99.90;;;;;;5098338;28;20052;-65
2022/07/29 01:45:43;;;;;;;5.78;2.15;;;15.30;99.90;;;;;;5093862;28;20135;-65
2022/07/29 01:48:31;;;;;;;5.25;2.45;;;15.30;99.90;;;;;;5100991;28;20086;-65
2022/07/29 01:51:19;;;;;;;3.03;1.90;;;15.30;99.90;;;;;;5099322;28;20052;-65
2022/07/29 01:54:10;;;;;;;3.78;2.13;;;15.30;99.90;;;;;;5099990;28;20052;-65
2022/07/29 01:56:37;;;;;;;2.90;2.45;;;15.30;99.90;;;;;;5070169;28;20182;-65
2022/07/29 01:59:06;;;;;;;7.22;2.78;;;15.30;99.90;;;;;;5100233;28;20139;-65
2022/07/29 02:01:34;;;;;;;3.67;1.90;;;15.30;99.90;;;;;;5097983;28;20052;-64
2022/07/29 02:04:04;;;;;;;5.03;2.30;;;15.30;99.90;;;;;;5097967;28;20054;-65
2022/07/29 02:06:32;;;;;;;3.72;2.20;;;15.30;99.90;;;;;;5100542;28;20078;-65
2022/07/29 02:08:59;;;;;;;3.60;2.30;;;15.30;99.90;;;;;;5103691;28;20040;-65
2022/07/29 02:11:25;;;;;;;4.90;2.38;;;15.30;99.90;;;;;;5104502;28;20044;-65
2022/07/29 02:13:54;;;;;;;4.65;2.30;;;15.30;99.90;;;;;;5103861;28;20055;-65
2022/07/29 02:16:22;;;;;;;4.53;2.50;;;15.20;99.90;;;;;;5099538;28;20053;-65
2022/07/29 02:18:52;;;;;;;3.75;1.98;;;15.20;99.90;;;;;;5091391;28;20052;-65
2022/07/29 02:21:23;;;;;;;3.03;2.20;;;15.20;99.90;;;;;;5096210;28;20070;-64
2022/07/29 02:23:52;;;;;;;5.75;2.20;;;15.20;99.90;;;;;;5093465;28;20464;-65
2022/07/29 02:26:22;;;;;;;5.60;2.72;;;15.10;99.90;;;;;;5104030;28;20097;-65
2022/07/29 02:28:51;;;;;;;4.60;2.30;;;15.10;99.90;;;;;;5089592;28;20127;-64
2022/07/29 02:31:21;;;;;;;4.68;2.20;;;15.10;99.90;;;;;;5094140;28;20058;-65
2022/07/29 02:33:47;;;;;;;;;;;15.10;99.90;;;;;;5103326;28;20085;-65
2022/07/29 02:36:14;;;;;;;5.82;2.67;;;15.10;99.90;;;;;;5092023;28;20010;-65
2022/07/29 02:38:51;;;;;;;4.88;1.88;;;15.00;99.90;;;;;;5090177;28;20397;-65
2022/07/29 02:41:40;;;;;;;4.75;2.53;;;15.00;99.90;;;;;;5091081;28;20058;-65
2022/07/29 02:44:18;;;;;;;4.50;2.40;;;15.00;99.90;;;;;;5083881;28;20113;-65
2022/07/29 02:46:49;;;;;;;3.58;2.33;;;15.00;99.90;;;;;;5094996;28;20794;-65
2022/07/29 02:49:27;;;;;;;3.80;2.38;;;15.00;99.90;;;;;;5091653;28;20131;-64
2022/07/29 02:52:23;;;;;;;5.40;2.50;;;15.00;99.90;;;;;;5103439;28;20059;-65
2022/07/29 02:55:12;;;;;;;4.00;2.67;;;15.00;99.90;;;;;;5055595;28;20052;-64
2022/07/29 02:57:43;;;;;;;;;;;14.90;99.90;;;;;;5092584;28;20047;-65
2022/07/29 03:00:10;;;;;;;5.03;2.33;;;14.90;99.90;;;;;;5103861;28;19924;-65
2022/07/29 03:02:40;;;;;;;6.07;2.83;;;14.90;99.90;;;;;;5098644;28;20114;-65
2022/07/29 03:05:10;;;;;;;4.10;2.47;;;14.80;99.90;;;;;;5102229;28;20467;-64
2022/07/29 03:07:38;;;;;;;4.40;2.03;;;14.90;99.90;;;;;;5102736;28;20048;-65
2022/07/29 03:10:06;;;;;;;3.90;2.63;;;14.80;99.90;;;;;;5099026;28;20053;-64
2022/07/29 03:12:32;;;;;;;5.38;2.53;;;14.80;99.90;;;;;;5098235;28;20051;-64
2022/07/29 03:15:00;;;;;;;3.72;2.53;;;14.80;99.90;;;;;;5099567;28;20055;-65
2022/07/29 03:17:26;;;;;;;6.20;2.47;;;14.80;99.90;;;;;;5101635;28;20036;-65
2022/07/29 03:19:52;;;;;;;6.78;2.50;;;14.90;99.90;;;;;;5101577;28;20134;-64
2022/07/29 03:22:19;;;;;;;5.97;2.10;;;14.80;99.90;;;;;;5092255;28;20079;-65
2022/07/29 03:24:45;;;;;;;3.95;2.42;;;14.80;99.90;;;;;;5089812;28;20110;-65
2022/07/29 03:27:11;;;;;;;7.28;3.05;;;14.90;99.90;;;;;;5102342;28;20036;-64
2022/07/29 03:29:36;;;;;;;6.18;2.30;;;14.80;99.90;;;;;;5100883;28;20098;-65
2022/07/29 03:32:04;;;;;;;3.42;2.42;;;14.90;99.90;;;;;;5096170;28;20041;-65
2022/07/29 03:34:30;;;;;;;4.47;2.78;;;14.90;99.90;;;;;;5101049;28;20112;-65
2022/07/29 03:36:56;;;;;;;4.93;2.30;;;14.90;99.90;;;;;;5099945;28;20241;-65
2022/07/29 03:39:25;;;;;;;5.03;2.83;;;14.90;99.90;;;;;;5096912;28;20141;-65
2022/07/29 03:41:55;;;;;;;5.37;2.40;;;15.00;99.90;;;;;;5098725;28;20048;-65
2022/07/29 03:44:22;;;;;;;4.43;2.15;;;14.90;99.90;;;;;;5099209;28;20044;-65
2022/07/29 03:46:51;;;;;;;4.72;2.70;;;14.90;99.90;;;;;;5102443;28;20123;-65
2022/07/29 03:49:19;;;;;;;2.65;2.10;;;14.90;99.90;;;;;;5096196;28;20058;-65
2022/07/29 03:51:46;;;;;;;4.47;2.28;;;14.90;99.90;;;;;;5099482;28;20093;-65
2022/07/29 03:54:12;;;;;;;4.57;2.13;;;14.90;99.90;;;;;;5101464;28;20487;-64
2022/07/29 03:56:41;;;;;;;7.00;2.45;;;14.90;99.90;;;;;;5106030;28;20113;-65
2022/07/29 03:59:08;;;;;;;5.32;2.50;;;14.90;99.90;;;;;;5078384;28;20064;-64
2022/07/29 04:01:35;;;;;;;6.07;2.58;;;14.90;99.90;;;;;;5094873;28;20101;-65
2022/07/29 04:04:04;;;;;;;3.42;2.22;;;14.90;99.90;;;;;;5101202;28;20040;-65
2022/07/29 04:06:38;;;;;;;6.25;2.70;;;14.90;99.90;;;;;;5107110;28;20040;-65
2022/07/29 04:09:04;;;;;;;4.32;2.65;;;14.90;99.90;;;;;;5103175;28;20059;-65
2022/07/29 04:11:29;;;;;;;5.88;2.85;;;14.80;99.90;;;;;;5099673;28;20052;-65
2022/07/29 04:13:55;;;;;;;5.50;2.55;;;14.80;99.90;;;;;;5099635;28;20107;-64
2022/07/29 04:16:21;;;;;;;6.22;2.40;;;14.80;99.90;;;;;;5105367;28;20102;-65
2022/07/29 04:18:47;;;;;;;5.30;2.45;;;14.70;99.90;;;;;;5099028;28;20052;-65
2022/07/29 04:21:12;;;;;;;4.47;2.10;;;14.70;99.90;;;;;;5100167;28;20092;-65
2022/07/29 04:23:38;;;;;;;8.38;2.88;;;14.70;99.90;;;;;;5099223;28;20052;-65
2022/07/29 04:26:04;;;;;;;6.72;2.40;;;14.70;99.90;;;;;;5106245;28;20048;-65
2022/07/29 04:28:29;;;;;;;5.93;2.22;;;14.70;99.90;;;;;;5101884;28;20123;-64
2022/07/29 04:30:55;;;;;;;4.15;2.45;;;14.70;99.90;;;;;;5105472;28;20131;-65
2022/07/29 04:33:21;;;;;;;6.90;2.63;;;14.80;99.90;;;;;;5102210;28;20052;-64
2022/07/29 04:35:46;;;;;;;4.35;2.25;;;14.80;99.90;;;;;;5105767;28;20051;-65
2022/07/29 04:38:12;;;;;;;6.55;2.50;;;14.80;99.90;;;;;;5077315;28;20124;-65
2022/07/29 04:40:37;;;;;;;4.22;2.55;;;14.80;99.90;;;;;;5100546;28;20742;-65
2022/07/29 04:43:03;;;;;;;5.97;2.40;;;14.90;99.90;;;;;;5105765;28;20091;-65
2022/07/29 04:45:29;;;;;;;6.03;2.75;;;14.90;99.90;;;;;;5104462;28;20101;-64
2022/07/29 04:47:55;;;;;;;5.20;2.58;;;15.00;99.90;;;;;;5104230;28;20040;-65
2022/07/29 04:50:21;;;;;;;7.95;2.53;;;15.00;99.90;;;;;;5105545;28;20048;-64
2022/07/29 04:52:47;;;;;;;6.55;2.70;;;15.00;99.90;;;;;;5105682;28;20054;-65
2022/07/29 04:55:13;;;;;;;5.10;2.75;;;15.00;99.90;;;;;;5100674;28;20096;-65
2022/07/29 04:57:38;;;;;;;5.78;2.85;;;15.00;99.90;;;;;;5101683;28;20051;-65
2022/07/29 05:00:05;;;;;;;5.20;2.72;;;15.10;99.90;;;;;;5105019;28;20040;-65
2022/07/29 05:02:31;;;;;;;6.30;3.00;;;15.10;99.90;;;;;;5094997;28;20086;-64
2022/07/29 05:04:57;;;;;;;5.85;2.90;;;15.10;99.90;;;;;;5102221;28;20484;-65
2022/07/29 05:07:22;;;;;;;4.13;2.10;;;15.10;99.90;;;;;;5097818;28;20054;-64
2022/07/29 05:09:48;;;;;;;4.85;2.28;;;15.20;99.90;;;;;;5091316;28;20052;-65
2022/07/29 05:12:14;;;;;;;4.45;2.15;;;15.20;99.90;;;;;;5102732;28;20040;-65
2022/07/29 05:14:39;;;;;;;5.82;2.90;;;15.20;99.90;;;;;;5105564;28;20507;-65
2022/07/29 05:17:05;;;;;;;5.20;2.20;;;15.30;99.90;;;;;;5100584;28;20072;-65
2022/07/29 05:19:31;;;;;;;5.90;2.42;;;15.30;99.90;;;;;;5118987;28;20045;-65
2022/07/29 05:21:57;;;;;;;4.35;2.30;;;15.40;99.90;;;;;;5095402;28;20137;-64
2022/07/29 05:24:23;;;;;;;6.93;2.90;;;15.40;99.90;;;;;;5105431;28;20052;-65
2022/07/29 05:26:48;;;;;;;6.68;3.03;;;15.40;99.90;;;;;;5105359;28;20140;-65
2022/07/29 05:29:14;;;;;;;7.38;2.67;;;15.50;99.90;;;;;;5099781;28;20481;-64
2022/07/29 05:31:40;;;;;;;5.65;2.50;;;15.50;99.90;;;;;;5104035;28;20043;-65
2022/07/29 05:34:05;;;;;;;3.60;2.22;;;15.60;99.90;;;;;;5105765;28;20397;-64
2022/07/29 05:36:31;;;;;;;5.20;2.33;;;15.60;99.90;;;;;;5091044;28;20071;-64
2022/07/29 05:38:57;;;;;;;6.68;2.28;;;15.60;99.90;;;;;;5100324;28;20076;-65
2022/07/29 05:41:23;;;;;;;3.65;2.08;;;15.70;99.90;;;;;;5096206;28;20134;-64
2022/07/29 05:43:48;;;;;;;6.22;2.78;;;15.70;99.90;;;;;;5105738;28;20126;-65
2022/07/29 05:46:14;;;;;;;5.10;2.58;;;15.70;99.90;;;;;;5102026;28;20065;-64
2022/07/29 05:48:40;;;;;;;5.55;2.55;;;15.70;99.90;;;;;;5097097;28;20047;-65
2022/07/29 05:51:06;;;;;;;8.02;3.15;;;15.70;99.90;;;;;;5102928;28;20048;-64
2022/07/29 05:53:31;;;;;;;3.92;2.50;;;15.70;99.90;;;;;;5105218;28;20040;-65
2022/07/29 05:55:57;;;;;;;5.95;2.17;;;15.80;99.90;;;;;;5100305;28;20041;-64
2022/07/29 05:58:23;;;;;;;6.78;2.70;;;15.80;99.90;;;;;;5100965;28;20040;-65
2022/07/29 06:00:49;;;;;;;6.00;2.58;;;15.80;99.90;;;;;;5115639;28;20052;-64
2022/07/29 06:03:15;;;;;;;8.05;2.50;;;15.80;99.90;;;;;;5100509;28;20537;-65
2022/07/29 06:05:41;;;;;;;7.88;2.50;;;15.80;99.90;;;;;;5098257;28;20501;-65
2022/07/29 06:08:07;;;;;;;5.88;2.42;;;15.90;99.90;;;;;;5103794;28;20058;-65
2022/07/29 06:10:34;;;;;;;6.97;2.50;;;15.90;99.90;;;;;;5094666;28;20055;-65
2022/07/29 06:13:00;;;;;;;5.55;2.20;;;15.90;99.90;;;;;;5093521;28;20044;-65
2022/07/29 06:15:26;;;;;;;6.70;2.88;;;15.90;99.90;;;;;;5096018;28;20517;-64
2022/07/29 06:17:52;;;;;;;8.48;2.53;;;15.90;99.90;;;;;;5099280;28;20048;-65
2022/07/29 06:20:18;;;;;;;9.15;2.90;;;16.00;99.90;;;;;;5099169;28;20100;-65
2022/07/29 06:22:44;;;;;;;5.68;2.13;;;16.00;99.90;;;;;;5104996;28;20500;-64
2022/07/29 06:25:09;;;;;;;3.60;2.28;;;16.10;99.90;;;;;;5098781;28;20048;-64
2022/07/29 06:27:35;;;;;;;6.13;2.13;;;16.10;99.90;;;;;;5098395;28;20395;-65
2022/07/29 06:30:01;;;;;;;5.13;2.47;;;16.20;99.90;;;;;;5098471;28;20035;-64
2022/07/29 06:32:27;;;;;;;5.32;2.35;;;16.20;99.90;;;;;;5095273;28;20052;-65
2022/07/29 06:34:53;;;;;;;4.20;2.20;;;16.30;99.90;;;;;;5104077;28;20040;-64
2022/07/29 06:37:19;;;;;;;18.25;3.72;;;16.30;99.90;;;;;;5100776;28;20480;-64
2022/07/29 06:39:44;;;;;;;6.93;2.58;;;16.40;99.90;;;;;;5103084;28;20111;-65
2022/07/29 06:42:10;;;;;;;3.17;2.15;;;16.40;99.90;;;;;;5087725;28;20063;-65
2022/07/29 06:44:35;;;;;;;6.05;2.63;;;16.40;99.90;;;;;;5102368;28;20381;-66
2022/07/29 06:47:02;;;;;;;6.47;2.28;;;16.40;99.90;;;;;;5098903;28;20044;-65
2022/07/29 06:49:27;;;;;;;6.00;2.50;;;16.40;99.90;;;;;;5104152;28;20105;-66
2022/07/29 06:51:54;;;;;;;6.20;2.45;;;16.50;99.90;;;;;;5103705;28;20043;-66
2022/07/29 06:54:20;;;;;;;7.90;2.97;;;16.50;99.90;;;;;;5103803;28;20036;-67
2022/07/29 06:56:45;;;;;;;5.07;2.80;;;16.60;99.90;;;;;;5099178;28;20124;-65
2022/07/29 06:59:12;;;;;;;8.15;2.90;;;16.50;99.90;;;;;;5098169;28;20117;-65
2022/07/29 07:01:40;;;;;;;9.48;2.60;;;16.60;99.90;;;;;;5101864;28;20115;-65
2022/07/29 07:04:06;;;;;;;6.60;2.30;;;16.50;99.90;;;;;;5097159;28;20119;-65
2022/07/29 07:06:32;;;;;;;8.48;3.25;;;16.60;99.90;;;;;;5103000;28;20040;-65
2022/07/29 07:08:58;;;;;;;6.03;2.75;;;16.50;99.90;;;;;;5098629;28;20089;-64
2022/07/29 07:11:23;;;;;;;11.48;2.97;;;16.60;99.90;;;;;;5098066;28;20094;-66
2022/07/29 07:13:49;;;;;;;6.40;2.60;;;16.60;99.90;;;;;;5100437;28;20060;-65
2022/07/29 07:16:15;;;;;;;4.97;2.72;;;16.60;99.90;;;;;;5099877;28;20048;-65
2022/07/29 07:18:41;;;;;;;5.57;2.65;;;16.70;99.90;;;;;;5090285;28;20047;-65
2022/07/29 07:21:07;;;;;;;6.35;2.85;;;16.70;99.90;;;;;;5096763;28;20283;-66
2022/07/29 07:23:32;;;;;;;6.80;2.92;;;16.80;99.90;;;;;;5100061;28;20094;-66
2022/07/29 07:25:58;;;;;;;6.45;2.50;;;16.90;99.90;;;;;;5100460;28;20059;-66
2022/07/29 07:28:24;;;;;;;10.05;2.85;;;16.90;99.90;;;;;;5099804;28;20071;-66
2022/07/29 07:30:49;;;;;;;5.63;2.70;;;17.00;99.90;;;;;;5097882;28;20086;-64
2022/07/29 07:33:15;;;;;;;8.65;2.92;;;17.00;99.90;;;;;;5100561;28;20097;-65
2022/07/29 07:35:41;;;;;;;5.82;2.65;;;17.10;99.90;;;;;;5100750;28;20048;-65
2022/07/29 07:38:07;;;;;;;8.80;2.85;;;17.10;99.90;;;;;;5101520;28;20039;-65
2022/07/29 07:40:33;;;;;;;6.90;2.70;;;17.20;99.90;;;;;;5096694;28;20040;-65
2022/07/29 07:42:58;;;;;;;9.30;2.63;;;17.20;99.90;;;;;;5096962;28;20082;-65
2022/07/29 07:45:24;;;;;;;4.40;2.42;;;17.30;99.90;;;;;;5100709;28;20100;-65
2022/07/29 07:47:50;;;;;;;7.50;3.00;;;17.30;99.90;;;;;;5099454;28;20484;-65
2022/07/29 07:50:17;;;;;;;7.45;3.13;;;17.40;99.90;;;;;;5099873;28;20036;-65
2022/07/29 07:52:51;;;;;;;7.57;2.72;;;17.50;99.90;;;;;;5098080;28;20071;-65
2022/07/29 07:55:18;;;;;;;3.97;2.88;;;17.60;99.90;;;;;;5099385;28;20103;-65
2022/07/29 07:57:45;;;;;;;4.32;2.67;;;17.70;99.90;;;;;;5102891;28;20036;-65
2022/07/29 08:00:12;;;;;;;6.85;3.20;;;17.80;99.90;;;;;;5099940;28;20392;-64
2022/07/29 08:02:39;;;;;;;4.68;3.00;;;17.80;99.90;;;;;;5101745;28;20059;-65
2022/07/29 08:05:06;;;;;;;7.57;2.67;;;17.90;99.90;;;;;;5099163;28;20036;-64
2022/07/29 08:07:32;;;;;;;5.47;2.70;;;18.00;99.90;;;;;;5102953;28;20070;-65
2022/07/29 08:09:58;;;;;;;6.40;2.60;;;18.00;99.90;;;;;;5102708;28;20040;-65
2022/07/29 08:12:24;;;;;;;5.15;2.80;;;18.00;99.90;;;;;;5099784;28;20127;-63
2022/07/29 08:14:49;;;;;;;4.57;2.75;;;18.10;99.90;;;;;;5102928;28;20065;-66
2022/07/29 08:17:15;;;;;;;6.35;2.50;;;18.10;99.90;;;;;;5097081;28;20511;-66
2022/07/29 08:19:41;;;;;;;5.65;3.10;;;18.10;99.90;;;;;;5098845;28;20028;-65
2022/07/29 08:22:07;;;;;;;6.70;2.70;;;18.20;99.90;;;;;;5098972;28;20110;-65
2022/07/29 08:24:52;;;;;;;9.43;3.15;;;18.10;99.90;;;;;;5100531;28;20543;-65
2022/07/29 08:27:19;;;;;;;9.40;3.13;;;18.20;99.90;;;;;;5091317;28;20044;-65
2022/07/29 08:29:44;;;;;;;6.97;3.08;;;18.20;99.90;;;;;;5088084;28;20070;-65
2022/07/29 08:32:10;;;;;;;6.53;2.85;;;18.20;99.90;;;;;;5078287;28;20051;-65
2022/07/29 08:34:36;;;;;;;6.35;2.92;;;18.30;99.90;;;;;;5101091;28;20079;-64
2022/07/29 08:37:02;;;;;;;5.00;3.20;;;18.20;99.90;;;;;;5087759;28;20039;-63
2022/07/29 08:39:27;;;;;;;6.55;2.67;;;18.20;99.90;;;;;;5096301;28;20055;-65
2022/07/29 08:41:54;;;;;;;6.53;2.88;;;18.30;99.90;;;;;;5100793;28;20079;-64
2022/07/29 08:44:21;;;;;;;6.15;3.10;;;18.30;99.90;;;;;;5098203;28;20105;-64
2022/07/29 08:46:49;;;;;;;13.30;3.10;;;18.30;99.90;;;;;;5094913;28;20100;-63
2022/07/29 08:49:15;;;;;;;13.93;3.53;;;18.30;99.90;;;;;;5102503;28;20044;-63
2022/07/29 08:51:41;;;;;;;6.57;3.22;;;18.30;99.90;;;;;;5106342;28;20048;-63
2022/07/29 08:54:09;;;;;;;8.68;2.95;;;18.40;99.90;;;;;;5100263;28;20066;-63
2022/07/29 08:56:35;;;;;;;6.93;3.13;;;18.50;99.90;;;;;;5105222;28;20095;-63
2022/07/29 08:59:04;;;;;;;6.55;2.30;;;18.50;99.90;;;;;;5100506;28;20055;-63
2022/07/29 09:01:33;;;;;;;8.70;3.22;;;18.60;99.90;;;;;;5101950;28;20110;-63
2022/07/29 09:04:00;;;;;;;12.52;3.72;;;18.70;99.90;;;;;;5074990;28;20565;-63
2022/07/29 09:06:32;;;;;;;11.32;2.97;;;18.80;99.90;;;;;;5056113;28;20323;-63
2022/07/29 09:08:59;;;;;;;7.68;2.97;;;18.80;99.90;;;;;;5075413;28;20418;-63
2022/07/29 09:11:25;;;;;;;5.53;2.78;;;18.90;99.90;;;;;;5077162;28;20076;-63
2022/07/29 09:13:51;;;;;;;6.80;3.20;;;19.00;99.90;;;;;;5092435;28;20036;-63
2022/07/29 09:16:17;;;;;;;6.65;2.95;;;19.10;99.90;;;;;;5097814;28;20048;-63
2022/07/29 09:18:45;;;;;;;7.85;2.80;;;19.20;99.90;;;;;;5091718;28;20044;-63
2022/07/29 09:24:13;;;;;;;4.53;2.60;;;19.30;99.90;;;;;;5087699;28;20067;-64
2022/07/29 09:26:43;;;;;;;8.77;3.28;;;19.30;99.90;;;;;;5091112;28;20051;-63
2022/07/29 09:29:14;;;;;;;9.15;3.50;;;19.40;99.90;;;;;;5092402;28;20077;-63
2022/07/29 09:31:51;;;;;;;5.18;2.92;;;19.40;99.90;;;;;;5093895;28;20044;-63
2022/07/29 09:34:22;;;;;;;7.88;2.70;;;19.50;99.90;;;;;;5084369;28;20056;-63
2022/07/29 09:36:50;;;;;;;7.60;3.28;;;19.50;99.90;;;;;;5082528;28;20546;-63
2022/07/29 09:39:33;;;;;;;11.25;3.00;;;19.60;99.90;;;;;;5096473;28;20059;-63
2022/07/29 09:42:01;;;;;;;6.47;2.95;;;19.60;99.90;;;;;;5073301;28;20056;-64
2022/07/29 09:44:40;;;;;;;12.43;4.03;;;19.70;99.90;;;;;;5093954;28;20053;-64
2022/07/29 09:47:05;;;;;;;8.10;3.00;;;19.70;99.90;;;;;;5056592;28;20076;-63
2022/07/29 09:49:53;;;;;;;7.47;2.95;;;19.70;99.90;;;;;;5098463;28;20040;-64
2022/07/29 09:52:20;;;;;;;6.38;2.88;;;19.70;99.90;;;;;;5076269;28;20047;-63
2022/07/29 09:54:46;;;;;;;9.95;3.55;;;19.70;99.90;;;;;;5087367;28;20040;-63
2022/07/29 09:57:27;;;;;;;7.20;3.17;;;19.70;99.90;;;;;;5088730;28;20035;-63
2022/07/29 10:00:11;;;;;;;5.15;2.67;;;19.80;99.90;;;;;;5091078;28;20033;-63
2022/07/29 10:02:39;;;;;;;7.18;2.80;;;19.80;99.90;;;;;;5076524;28;20048;-63
2022/07/29 10:05:27;;;;;;;5.93;2.90;;;19.80;99.90;;;;;;5062240;28;20167;-63
2022/07/29 10:07:56;;;;;;;6.75;3.10;;;19.90;99.90;;;;;;5090459;28;20294;-62
2022/07/29 10:10:30;;;;;;;5.45;2.95;;;19.90;99.90;;;;;;5088626;28;20082;-63
2022/07/29 10:13:04;;;;;;;5.93;2.80;;;20.00;99.90;;;;;;5069731;28;20071;-63
2022/07/29 10:15:32;;;;;;;10.70;3.70;;;20.20;99.90;;;;;;5086672;28;20044;-63
2022/07/29 10:17:59;;;;;;;8.35;3.00;;;20.30;99.90;;;;;;5075384;28;20099;-62
2022/07/29 10:20:26;;;;;;;6.43;2.75;;;20.40;99.90;;;;;;5092456;28;20045;-63
2022/07/29 10:22:53;;;;;;;7.75;3.30;;;20.40;99.90;;;;;;5077589;28;20109;-63
2022/07/29 10:25:19;;;;;;;7.30;3.33;;;20.40;99.90;;;;;;5091469;28;20046;-64
2022/07/29 10:27:47;;;;;;;8.27;3.67;;;20.50;99.90;;;;;;5073949;28;20225;-64
2022/07/29 10:30:15;;;;;;;8.82;3.15;;;20.50;99.90;;;;;;5094024;28;20083;-64
2022/07/29 10:33:29;;;;;;;9.73;3.33;;;20.50;99.90;;;;;;5084530;28;20332;-64
2022/07/29 10:36:25;;;;;;;7.03;3.17;;;20.60;99.90;;;;;;5027768;28;20114;-65
2022/07/29 10:38:57;;;;;;;10.23;3.05;;;20.60;99.90;;;;;;5048304;28;20046;-65
2022/07/29 10:41:28;;;;;;;7.57;3.20;;;20.70;99.90;;;;;;5025333;28;20049;-65
2022/07/29 10:44:07;;;;;;;6.53;2.83;;;20.70;99.90;;;;;;5027703;28;20045;-65
2022/07/29 10:46:38;;;;;;;7.88;2.83;;;20.70;99.90;;;;;;5035142;28;20046;-65
2022/07/29 10:49:07;;;;;;;7.80;3.05;;;20.70;99.90;;;;;;5023851;28;20101;-66
2022/07/29 10:51:55;;;;;;;5.72;3.33;;;20.60;99.90;;;;;;5021789;28;20110;-65
2022/07/29 10:54:48;;;;;;;9.85;3.20;;;20.60;99.90;;;;;;5027803;28;20060;-64
2022/07/29 10:57:26;;;;;;;7.70;3.25;;;20.60;99.90;;;;;;5018418;28;20053;-65
2022/07/29 11:00:14;;;;;;;5.85;3.30;;;20.50;99.90;;;;;;5038804;28;20725;-65
2022/07/29 11:02:40;;;;;;;10.32;3.90;;;20.50;99.90;;;;;;5021099;28;20054;-65
2022/07/29 11:05:13;;;;;;;14.68;3.58;;;20.50;99.90;;;;;;4995703;28;20057;-65
2022/07/29 11:08:21;;;;;;;7.35;2.95;;;20.50;99.90;;;;;;5005531;28;20077;-65
2022/07/29 11:10:51;;;;;;;5.60;3.17;;;20.50;99.90;;;;;;5033750;28;20310;-65
2022/07/29 11:13:50;;;;;;;23.98;4.82;;;20.50;99.90;;;;;;5052109;28;20128;-66
2022/07/29 11:16:18;;;;;;;8.93;3.38;;;20.50;99.90;;;;;;5078210;28;20049;-66
2022/07/29 11:19:12;;;;;;;7.18;2.80;;;20.50;99.90;;;;;;5079529;28;20044;-68
2022/07/29 11:21:42;;;;;;;8.00;3.53;;;20.50;99.90;;;;;;5076581;28;20055;-66
2022/07/29 11:24:23;;;;;;;5.78;3.05;;;20.50;99.90;;;;;;5080343;28;20539;-66
2022/07/29 11:27:19;;;;;;;6.85;2.95;;;20.50;99.90;;;;;;5081187;28;20143;-66
2022/07/29 11:29:49;;;;;;;9.00;3.10;;;20.50;99.90;;;;;;5080384;28;20049;-66
2022/07/29 11:32:17;;;;;;;12.00;3.50;;;20.50;99.90;;;;;;5050631;28;20047;-66
2022/07/29 11:34:43;;;;;;;6.97;3.38;;;20.50;99.90;;;;;;5070043;28;20636;-66
2022/07/29 11:37:09;;;;;;;10.98;3.50;;;20.50;99.90;;;;;;5055312;28;20087;-66
2022/07/29 11:39:39;;;;;;;4.85;2.80;;;20.60;99.90;;;;;;5064080;28;20373;-68
2022/07/29 11:42:19;;;;;;;5.00;3.28;;;20.60;99.90;;;;;;5055014;28;20076;-66
2022/07/29 11:45:00;;;;;;;5.97;2.85;;;20.70;99.90;;;;;;5069851;28;20109;-66
2022/07/29 11:47:27;;;;;;;6.32;3.65;;;20.80;99.90;;;;;;5075821;28;20445;-66
2022/07/29 11:49:54;;;;;;;5.72;3.40;;;20.80;99.90;;;;;;5083024;28;20064;-66
2022/07/29 11:52:20;;;;;;;14.95;4.45;;;20.90;99.90;;;;;;5056023;28;20058;-66
2022/07/29 11:54:52;;;;;;;7.28;3.40;;;20.90;99.90;;;;;;5066793;28;20102;-66
2022/07/29 11:57:19;;;;;;;9.02;3.33;;;21.00;99.90;;;;;;5050108;28;20111;-67
2022/07/29 11:59:47;;;;;;;6.60;3.03;;;21.00;99.90;;;;;;5070580;28;20078;-66
2022/07/29 12:02:13;;;;;;;6.43;3.15;;;21.10;99.90;;;;;;5057482;28;20067;-66
2022/07/29 12:04:55;;;;;;;7.85;3.22;;;21.20;99.90;;;;;;5042240;28;20111;-65
2022/07/29 12:07:33;;;;;;;9.98;3.50;;;21.30;99.90;;;;;;5073781;28;20052;-64
2022/07/29 12:10:01;;;;;;;10.18;3.60;;;21.40;99.90;;;;;;5058427;28;20104;-65
2022/07/29 12:12:27;;;;;;;7.47;3.60;;;21.50;99.90;;;;;;5065618;28;20083;-65
2022/07/29 12:14:54;;;;;;;8.63;3.22;;;21.60;99.90;;;;;;5085319;28;20087;-65
2022/07/29 12:17:34;;;;;;;5.65;3.28;;;21.70;99.90;;;;;;5058143;28;20044;-65
2022/07/29 12:20:05;;;;;;;6.43;3.30;;;21.80;99.90;;;;;;5083224;28;20048;-64
2022/07/29 12:22:36;;;;;;;8.70;3.47;;;21.90;99.90;;;;;;5073018;28;20047;-64
2022/07/29 12:25:18;;;;;;;7.93;3.78;;;22.00;99.90;;;;;;5092319;28;20040;-64
2022/07/29 12:27:44;;;;;;;6.78;3.42;;;22.00;99.90;;;;;;5088155;28;20054;-64
2022/07/29 12:30:15;;;;;;;10.93;3.78;;;22.00;99.90;;;;;;5091141;28;20044;-64
2022/07/29 12:32:46;;;;;;;9.55;3.63;;;22.10;99.90;;;;;;5058772;28;20048;-64
2022/07/29 12:35:20;;;;;;;19.15;6.05;;;22.10;99.90;;;;;;5076483;28;20102;-64
2022/07/29 12:37:51;;;;;;;10.90;3.92;;;22.10;99.90;;;;;;5057203;28;20052;-64
2022/07/29 12:40:20;;;;;;;14.38;4.65;;;22.10;99.90;;;;;;5067570;28;20056;-64
2022/07/29 12:43:05;;;;;;;10.75;3.72;;;22.20;99.90;;;;;;5061109;28;20155;-64
2022/07/29 12:45:31;;;;;;;9.27;3.17;;;22.30;99.90;;;;;;5076191;28;20045;-64
2022/07/29 12:47:57;;;;;;;8.48;3.60;;;22.40;99.90;;;;;;5061932;28;20071;-64
2022/07/29 12:50:23;;;;;;;9.25;3.20;;;22.50;99.90;;;;;;5071858;28;20504;-64
2022/07/29 12:52:49;;;;;;;12.38;3.55;;;22.70;99.90;;;;;;5050385;28;20052;-64
2022/07/29 12:55:15;;;;;;;7.93;3.10;;;22.80;99.90;;;;;;5087420;28;20052;-64
2022/07/29 12:57:53;;;;;;;5.90;3.15;;;23.00;99.90;;;;;;5087535;28;20043;-64
2022/07/29 13:00:23;;;;;;;7.35;3.40;;;23.10;99.90;;;;;;5091507;28;20047;-65
2022/07/29 13:02:55;;;;;;;9.02;3.03;;;23.20;99.90;;;;;;5064828;28;20048;-65